createdAt,value
2019-01-03T00:00:00.483Z,9.0
2019-01-03T00:05:00.931Z,10.1
2019-01-03T00:10:00.488Z,10.0
2019-01-03T00:15:00.623Z,10.4
2019-01-03T00:20:00.489Z,10.0
2019-01-03T00:25:00.606Z,9.3
2019-01-03T00:30:00.490Z,8.2
2019-01-03T00:35:01.284Z,8.0
2019-01-03T00:40:00.497Z,7.3
2019-01-03T00:45:00.622Z,7.7
2019-01-03T00:55:00.626Z,8.1
2019-01-03T01:00:00.496Z,8.2
2019-01-03T01:05:00.508Z,8.4
2019-01-03T01:10:00.500Z,8.0
2019-01-03T01:15:00.567Z,8.7
2019-01-03T01:20:00.504Z,8.3
2019-01-03T01:25:01.734Z,9.1
2019-01-03T01:30:00.555Z,9.6
2019-01-03T01:35:00.567Z,9.4
2019-01-03T01:40:00.500Z,8.6
2019-01-03T01:45:00.570Z,8.6
2019-01-03T01:50:00.509Z,7.2
2019-01-03T01:55:01.271Z,6.0
2019-01-03T02:00:03.112Z,6.6
2019-01-03T02:15:00.576Z,7.4
2019-01-03T02:20:00.552Z,7.0
2019-01-03T02:25:00.514Z,6.6
2019-01-03T02:30:00.512Z,6.2
2019-01-03T02:35:00.578Z,5.8
2019-01-03T02:40:00.646Z,5.4
2019-01-03T02:45:00.578Z,5.9
2019-01-03T02:50:00.539Z,5.8
2019-01-03T03:00:00.583Z,6.0
2019-01-03T03:10:00.644Z,6.2
2019-01-03T03:15:01.194Z,6.3
2019-01-03T03:20:00.547Z,6.7
2019-01-03T03:25:00.596Z,6.6
2019-01-03T03:30:00.561Z,7.2
2019-01-03T03:35:00.595Z,7.1
2019-01-03T03:40:00.531Z,7.0
2019-01-03T03:45:00.593Z,7.0
2019-01-03T03:50:00.559Z,7.1
2019-01-03T03:55:00.711Z,6.1
2019-01-03T04:00:00.530Z,6.2
2019-01-03T04:05:00.633Z,6.6
2019-01-03T04:15:00.603Z,6.7
2019-01-03T04:20:00.537Z,6.9
2019-01-03T04:25:00.857Z,6.8
2019-01-03T04:30:00.538Z,7.2
2019-01-03T04:35:00.541Z,7.3
2019-01-03T04:40:01.245Z,7.1
2019-01-03T04:45:05.611Z,7.4
2019-01-03T04:50:00.547Z,7.1
2019-01-03T04:55:00.621Z,6.0
2019-01-03T05:00:00.513Z,5.4
2019-01-03T05:10:01.337Z,5.5
2019-01-03T05:15:00.706Z,5.6
2019-01-03T05:20:00.552Z,6.2
2019-01-03T05:25:00.625Z,6.4
2019-01-03T05:30:02.107Z,7.0
2019-01-03T05:35:01.210Z,6.4
2019-01-03T05:40:00.559Z,6.8
2019-01-03T05:45:00.629Z,6.6
2019-01-03T05:50:00.558Z,7.0
2019-01-03T05:55:00.631Z,6.6
2019-01-03T06:00:00.558Z,6.8
2019-01-03T06:05:00.697Z,6.7
2019-01-03T06:10:05.574Z,6.6
2019-01-03T06:15:00.636Z,6.8
2019-01-03T06:25:00.630Z,7.2
2019-01-03T06:30:00.572Z,7.4
2019-01-03T06:35:05.570Z,7.2
2019-01-03T06:45:01.071Z,8.4
2019-01-03T06:50:00.570Z,8.6
2019-01-03T06:55:00.632Z,9.4
2019-01-03T07:00:00.574Z,10.9
2019-01-03T07:05:00.706Z,12.0
2019-01-03T07:10:05.591Z,11.9
2019-01-03T07:15:00.643Z,13.0
2019-01-03T07:20:01.828Z,13.5
2019-01-03T07:25:00.648Z,13.3
2019-01-03T07:30:00.584Z,12.4
2019-01-03T07:35:00.805Z,12.0
2019-01-03T07:40:02.210Z,10.7
2019-01-03T07:45:00.645Z,10.0
2019-01-03T07:50:00.583Z,9.5
2019-01-03T07:55:01.771Z,9.9
2019-01-03T08:00:00.584Z,10.9
2019-01-03T08:05:01.340Z,11.4
2019-01-03T08:10:00.590Z,13.0
2019-01-03T08:15:00.720Z,14.3
2019-01-03T08:20:00.596Z,15.0
2019-01-03T08:25:05.653Z,16.8
2019-01-03T08:30:01.083Z,17.9
2019-01-03T08:35:00.661Z,18.3
2019-01-03T08:40:00.615Z,18.9
2019-01-03T08:45:00.728Z,19.8
2019-01-03T08:50:00.593Z,19.0
2019-01-03T08:55:01.807Z,20.3
2019-01-03T09:00:05.600Z,18.7
2019-01-03T09:05:00.667Z,17.8
2019-01-03T09:10:01.037Z,16.0
2019-01-03T09:15:00.736Z,15.9
2019-01-03T09:20:00.682Z,15.0
2019-01-03T09:25:00.673Z,16.5
2019-01-03T09:30:00.613Z,17.0
2019-01-03T09:35:00.674Z,17.4
2019-01-03T09:40:00.607Z,17.5
2019-01-03T09:45:00.740Z,16.8
2019-01-03T09:50:00.632Z,15.6
2019-01-03T09:55:00.670Z,14.8
2019-01-03T10:00:05.618Z,15.6
2019-01-03T10:05:00.768Z,14.2
2019-01-03T10:10:00.604Z,13.7
2019-01-03T10:15:05.679Z,13.6
2019-01-03T10:20:01.683Z,12.4
2019-01-03T10:25:00.675Z,11.6
2019-01-03T10:30:00.615Z,13.0
2019-01-03T10:35:00.681Z,14.6
2019-01-03T10:40:05.626Z,15.0
2019-01-03T10:45:00.739Z,16.0
2019-01-03T10:50:00.618Z,17.2
2019-01-03T10:55:00.614Z,16.6
2019-01-03T11:00:00.618Z,15.3
2019-01-03T11:05:00.679Z,14.6
2019-01-03T11:10:03.519Z,14.1
2019-01-03T11:15:00.687Z,12.7
2019-01-03T11:20:00.623Z,12.0
2019-01-03T11:25:00.722Z,10.9
2019-01-03T11:30:00.590Z,11.0
2019-01-03T11:35:00.691Z,11.2
2019-01-03T11:40:00.635Z,11.7
2019-01-03T11:45:00.695Z,11.3
2019-01-03T11:50:00.629Z,11.4
2019-01-03T11:55:00.730Z,10.5
2019-01-03T12:00:00.633Z,10.1
2019-01-03T12:05:03.233Z,9.9
2019-01-03T12:10:00.831Z,9.3
2019-01-03T12:15:00.698Z,9.2
2019-01-03T12:20:00.639Z,9.1
2019-01-03T12:30:05.713Z,8.2
2019-01-03T12:35:00.712Z,8.3
2019-01-03T12:40:00.643Z,8.5
2019-01-03T12:45:00.718Z,8.8
2019-01-03T12:55:00.781Z,8.4
2019-01-03T13:00:05.903Z,8.0
2019-01-03T13:05:00.725Z,8.3
2019-01-03T13:15:00.724Z,9.5
2019-01-03T13:20:00.695Z,13.3
2019-01-03T13:25:05.798Z,18.6
2019-01-03T13:30:05.669Z,20.2
2019-01-03T13:35:00.725Z,22.1
2019-01-03T13:40:00.660Z,21.5
2019-01-03T13:45:00.653Z,19.0
2019-01-03T13:50:00.702Z,16.9
2019-01-03T13:55:01.171Z,17.0
2019-01-03T14:00:00.737Z,18.7
2019-01-03T14:05:00.787Z,21.8
2019-01-03T14:10:00.654Z,23.0
2019-01-03T14:15:00.727Z,21.3
2019-01-03T14:20:01.039Z,21.4
2019-01-03T14:25:02.050Z,18.9
2019-01-03T14:30:00.666Z,17.2
2019-01-03T14:35:00.799Z,17.8
2019-01-03T14:40:00.670Z,18.8
2019-01-03T14:45:00.731Z,17.8
2019-01-03T14:50:00.668Z,18.8
2019-01-03T14:55:00.738Z,17.4
2019-01-03T15:00:00.684Z,16.2
2019-01-03T15:05:00.803Z,14.8
2019-01-03T15:10:00.672Z,14.2
2019-01-03T15:15:00.742Z,13.0
2019-01-03T15:20:05.696Z,14.0
2019-01-03T15:25:05.683Z,14.3
2019-01-03T15:30:05.684Z,15.2
2019-01-03T15:35:00.812Z,15.4
2019-01-03T15:45:00.878Z,16.0
2019-01-03T15:50:00.684Z,15.4
2019-01-03T15:55:00.682Z,15.2
2019-01-03T16:00:00.693Z,15.8
2019-01-03T16:05:00.817Z,16.1
2019-01-03T16:10:00.714Z,15.2
2019-01-03T16:15:05.762Z,15.2
2019-01-03T16:20:00.718Z,14.5
2019-01-03T16:25:00.684Z,14.8
2019-01-03T16:30:00.691Z,14.2
2019-01-03T16:35:00.793Z,13.4
2019-01-03T16:40:00.689Z,13.6
2019-01-03T16:45:05.693Z,14.0
2019-01-03T16:50:05.692Z,13.5
2019-01-03T16:55:00.690Z,14.4
2019-01-03T17:00:00.693Z,15.4
2019-01-03T17:05:00.824Z,15.7
2019-01-03T17:10:01.041Z,16.2
2019-01-03T17:15:01.543Z,15.2
2019-01-03T17:20:00.702Z,15.3
2019-01-03T17:25:00.759Z,15.1
2019-01-03T17:30:00.701Z,15.3
2019-01-03T17:35:00.764Z,14.6
2019-01-03T17:40:00.706Z,15.5
2019-01-03T17:45:00.711Z,15.6
2019-01-03T17:50:00.704Z,15.2
2019-01-03T17:55:01.087Z,14.6
2019-01-03T18:00:00.709Z,15.1
2019-01-03T18:05:00.778Z,14.8
2019-01-03T18:10:00.718Z,15.1
2019-01-03T18:15:05.859Z,16.0
2019-01-03T18:20:05.718Z,18.0
2019-01-03T18:25:00.794Z,19.2
2019-01-03T18:30:00.723Z,21.1
2019-01-03T18:35:00.726Z,22.2
2019-01-03T18:40:00.761Z,22.3
2019-01-03T18:45:00.824Z,21.4
2019-01-03T18:50:00.724Z,20.1
2019-01-03T18:55:01.016Z,19.4
2019-01-03T19:00:00.912Z,17.3
2019-01-03T19:05:01.306Z,16.3
2019-01-03T19:10:00.736Z,15.2
2019-01-03T19:15:00.863Z,16.5
2019-01-03T19:20:00.738Z,16.7
2019-01-03T19:25:00.828Z,16.4
2019-01-03T19:30:05.733Z,16.3
2019-01-03T19:40:00.825Z,14.8
2019-01-03T19:45:00.866Z,14.9
2019-01-03T19:50:02.262Z,15.2
2019-01-03T20:00:00.921Z,15.6
2019-01-03T20:05:05.819Z,15.0
2019-01-03T20:10:05.743Z,14.0
2019-01-03T20:15:05.998Z,13.8
2019-01-03T20:25:00.849Z,14.4
2019-01-03T20:30:00.782Z,16.0
2019-01-03T20:35:00.914Z,17.0
2019-01-03T20:40:00.777Z,19.0
2019-01-03T20:45:00.887Z,20.2
2019-01-03T20:50:00.748Z,21.2
2019-01-03T20:55:00.820Z,20.9
2019-01-03T21:00:00.789Z,18.5
2019-01-03T21:05:00.927Z,17.0
2019-01-03T21:10:00.799Z,16.4
2019-01-03T21:15:00.866Z,14.7
2019-01-03T21:20:05.770Z,13.2
2019-01-03T21:25:00.801Z,14.1
2019-01-03T21:30:00.770Z,14.2
2019-01-03T21:35:00.807Z,14.3
2019-01-03T21:40:00.802Z,14.7
2019-01-03T21:45:05.788Z,15.1
2019-01-03T21:50:02.271Z,15.2
2019-01-03T21:55:00.778Z,14.1
2019-01-03T22:00:00.778Z,14.1
2019-01-03T22:05:00.778Z,12.4
2019-01-03T22:10:00.817Z,11.8
2019-01-03T22:15:00.854Z,11.2
2019-01-03T22:20:00.780Z,11.6
2019-01-03T22:25:00.783Z,10.5
2019-01-03T22:30:00.785Z,10.8
2019-01-03T22:35:00.787Z,11.2
2019-01-03T22:40:05.791Z,11.5
2019-01-03T22:45:01.588Z,12.0
2019-01-03T22:50:00.825Z,11.2
2019-01-03T22:55:00.828Z,11.8
2019-01-03T23:00:00.796Z,11.4
2019-01-03T23:05:00.798Z,10.9
2019-01-03T23:10:00.796Z,10.8
2019-01-03T23:15:00.794Z,11.0
2019-01-03T23:20:00.767Z,11.4
2019-01-03T23:25:00.801Z,11.6
2019-01-03T23:30:00.828Z,12.2
2019-01-03T23:35:00.841Z,12.8
2019-01-03T23:40:00.838Z,12.0
2019-01-03T23:45:00.846Z,10.5
2019-01-03T23:50:00.847Z,9.8
2019-01-03T23:55:00.903Z,9.1
